SBJP/JPA METAR and TAF weather

Enter ICAO airport designator
Station Type Date Time Source
SBJP METAR 2020/12/06 01:00 UTC NOAA

SBJP 060100Z 10006KT 9999 FEW023 25/22 Q1015


Station Type Date Time Source
SBJP Decoded METAR 2020/12/06 01:00 UTC NOAA

Joao Pessoa, Brazil (SBJP) 07-06S 034-52W
Dec 05, 2020 - 08:00 PM EST / 2020.12.06 0100 UTC
Wind: from the E (100 degrees) at 7 MPH (6 KT):0
Visibility: greater than 7 mile(s):0
Sky conditions: mostly clear
Temperature: 77 F (25 C)
Dew Point: 71 F (22 C)
Relative Humidity: 83%
Pressure (altimeter): 29.97 in. Hg (1015 hPa)
ob: SBJP 060100Z 10006KT 9999 FEW023 25/22 Q1015
cycle: 1

Station Type Date Time Source
SBJP TAF 2020/12/06 00:00 UTC NOAA

TAF SBJP 052100Z 0600/0624 09010KT 8000 SCT025 TN25/0608Z TX31/0616Z PROB30 0605/0607 7000 RA BKN020
BECMG 0612/0614 10015KT BKN030
BECMG 0620/0622 09010KT FEW020
RMK PHC

Example: see airport list